^^

Nearby METAR Reports

METAR (Meteorological Aerodrome Report) are Airport generated local weather condition reports for use, predominantly by pilots, these reports are also used as part of compliment of data sets required for Chatteris Weathers prediction software - WxSim.

EGUN - Mildenhall Raf, United Kingdom
Distance from station: ESE 19mi, 31km
Updated: 26/03/2019 15:56
Overcast
Overcast
 Wind from WNW
Wind: WNW 9 mph , 15 km/h
Temperature: 12°C
Dew Point: 6°C
Humidity: 67%
Barometer: 1031.5 hPa
Clouds: Overcast
Visibility: 6 miles , 10 km
Cloud details: Few Clouds 1189 m
Overcast 1494 m
2019/03/26 15:56 EGUN 261556Z AUTO 30008KT 9999 FEW039 OVC049 12/06 A3046 RMK AO2 SLP318 T01160057 $
EGSC - Cambridge, United Kingdom
Distance from station: SSE 20mi, 32km
Updated: 26/03/2019 16:20
Partly cloudy
Partly cloudy
 Wind from NW
Wind: NW 10 mph , 17 km/h
Temperature: 12°C
Dew Point: 2°C
Humidity: 51%
Barometer: 1032 hPa
Clouds: Partly cloudy
Visibility: 6 miles , 10 km
Cloud details: Partly cloudy 1280 m
2019/03/26 16:20 EGSC 261620Z 32009KT 300V360 9999 SCT042 12/02 Q1032
 
EGUL - Lakenheath Raf, United Kingdom
Distance from station: E 22mi, 36km
Updated: 26/03/2019 15:56
Light drizzle, Partly cloudy
Light drizzle, Partly cloudy
 Wind from NW
Wind: NW 6 mph , 9 km/h
Temperature: 11°C
Dew Point: 3°C
Humidity: 58%
Barometer: 1031.5 hPa
Summary: Light Drizzle
Clouds: Partly cloudy
Visibility: 6 miles , 10 km
Cloud details: Partly cloudy 1494 m
2019/03/26 15:56 EGUL 261556Z AUTO 31005KT 9999 -DZ SCT049 11/03 A3046 RMK AO2 DZB48 SLP318 P0000 T01120030 $
EGXT - Wittering Raf, United Kingdom
Distance from station: WNW 24mi, 38km
Updated: 26/03/2019 15:50
Partly cloudy
Partly cloudy
 Wind from W
Wind: W 15 mph , 24 km/h
Temperature: 12°C
Dew Point: 4°C
Humidity: 58%
Barometer: 1031 hPa
Clouds: Partly cloudy
Visibility: 6 miles , 10 km
Cloud details: Partly cloudy 1250 m
2019/03/26 15:50 EGXT 261550Z 28013KT 9999 SCT041 12/04 Q1031 BLU
 
EGYH - Holbeach (aut), United Kingdom
Distance from station: N 27mi, 44km
Updated: 26/03/2019 15:50
Partly cloudy
Partly cloudy
 Wind from W
Wind: W 10 mph , 17 km/h
Temperature: 11°C
Dew Point: 5°C
Humidity: 67%
Barometer: 1031 hPa
Clouds: Partly cloudy
Visibility: 6 miles , 10 km
Cloud details: Partly cloudy 1219 m
2019/03/26 15:50 EGYH 261550Z 28009KT 9999 SCT040 11/05 Q1031 BLU
EGSS - Stansted Airport, United Kingdom
Distance from station: SE 11mi, 18km
Updated: 26/03/2019 16:20
Mostly cloudy
Mostly cloudy
 Wind from NNW
Wind: NNW 12 mph , 19 km/h
Temperature: 12°C
Dew Point: 2°C
Humidity: 51%
Barometer: 1032 hPa
Clouds: Mostly cloudy
Visibility: 6 miles , 10 km
Cloud details: Mostly cloudy 1250 m
2019/03/26 16:20 EGSS 261620Z AUTO 34010KT 9999 BKN041 12/02 Q1032
 
EGGW - Luton Airport, United Kingdom
Distance from station: WSW 19mi, 31km
Updated: 26/03/2019 16:20
Mostly cloudy
Mostly cloudy
 Wind from N
Wind: N 10 mph , 17 km/h
Temperature: 11°C
Dew Point: 3°C
Humidity: 58%
Barometer: 1032 hPa
Clouds: Mostly cloudy
Visibility: 6 miles , 10 km
Cloud details: Mostly cloudy 1189 m
2019/03/26 16:20 EGGW 261620Z 36009KT 330V040 9999 BKN039 11/03 Q1032
EGLL - London/Heathrow, United Kingdom
Distance from station: SSW 41mi, 66km
Updated: 26/03/2019 16:20
Partly cloudy
Partly cloudy
 Wind from N
Wind: N 7 mph , 11 km/h
Temperature: 13°C
Dew Point: 2°C
Humidity: 47%
Barometer: 1032 hPa
Clouds: Partly cloudy
Visibility: 6 miles , 10 km
Cloud details: Partly cloudy 1402 m
2019/03/26 16:20 EGLL 261620Z AUTO 36006KT 310V040 9999 SCT046 13/02 Q1032 NOSIG
 
EGKK - London/Gatwick A, United Kingdom
Distance from station: S 60mi, 97km
Updated: 26/03/2019 16:20
Few Clouds
Few Clouds
 Wind from NW
Wind: NW 7 mph , 11 km/h
Temperature: 13°C
Dew Point: 2°C
Humidity: 47%
Barometer: 1032 hPa
Clouds: Few Clouds
Visibility: 6 miles , 10 km
Cloud details: Few Clouds 1341 m
2019/03/26 16:20 EGKK 261620Z 31006KT 270V350 9999 FEW044 13/02 Q1032
EGUY - Wyton Raf, United Kingdom
Distance from station: SW 11mi, 18km
Updated: 04/10/2015 09:50
NOT Current
Haze, Clear
Haze, Clear
 Wind from SSE
Wind: SSE 2 mph , 4 km/h
Temperature: 11°C
Dew Point: 7°C
Humidity: 77%
Barometer: 1014 hPa
Summary: Haze
Clouds: Clear
Visibility: 4 miles , 6 km
2015/10/04 08:50 EGUY 040850Z 15002KT 6000 HZ SKC 11/07 Q1014 WHT

Met Office METAR data link, decoding METAR data code.